Time;durP1;ratioP1;P1;durP2;ratioP2;P2;SDS_P1;SDS_P2;PMS_P1;PMS_P2;Temp;Humidity;BMP_temperature;BMP_pressure;BME280_temperature;BME280_humidity;BME280_pressure;Samples;Min_cycle;Max_cycle;Signal;HPM_P1;HPM_P2
2024/01/18 00:04:48;;;;;;;1.95;1.60;;;24.20;36.80;;;;;;10393440;28;20038;-62
2024/01/18 00:09:51;;;;;;;1.80;1.60;;;24.10;36.70;;;;;;10389491;28;20077;-63
2024/01/18 00:14:52;;;;;;;1.75;1.50;;;24.10;36.80;;;;;;10393277;28;20458;-62
2024/01/18 00:19:54;;;;;;;1.77;1.60;;;24.10;36.90;;;;;;10399256;28;20091;-62
2024/01/18 00:24:57;;;;;;;1.95;1.75;;;24.10;36.80;;;;;;10399435;28;20108;-62
2024/01/18 00:29:59;;;;;;;3.40;1.75;;;24.10;36.90;;;;;;10393286;28;20053;-62
2024/01/18 00:35:00;;;;;;;1.92;1.67;;;24.10;36.80;;;;;;10385547;28;20042;-63
2024/01/18 00:40:04;;;;;;;1.90;1.70;;;24.10;36.90;;;;;;10393017;28;20253;-62
2024/01/18 00:45:07;;;;;;;1.60;1.50;;;24.10;36.70;;;;;;10386079;28;20069;-62
2024/01/18 00:50:09;;;;;;;1.85;1.70;;;24.10;36.60;;;;;;10389875;28;20045;-62
2024/01/18 00:55:12;;;;;;;1.95;1.60;;;24.10;36.60;;;;;;10398986;28;20500;-62
2024/01/18 01:00:15;;;;;;;1.65;1.35;;;24.10;36.60;;;;;;10392132;28;20409;-62
2024/01/18 01:05:16;;;;;;;1.70;1.60;;;24.10;36.70;;;;;;10392568;28;20103;-60
2024/01/18 01:10:19;;;;;;;2.17;1.60;;;24.10;36.70;;;;;;10386119;28;20077;-62
2024/01/18 01:15:21;;;;;;;1.83;1.40;;;24.10;36.70;;;;;;10386728;28;20084;-63
2024/01/18 01:20:23;;;;;;;1.60;1.50;;;24.10;36.70;;;;;;10389942;28;20065;-62
2024/01/18 01:25:26;;;;;;;1.42;1.30;;;24.00;36.80;;;;;;10383012;28;20045;-63
2024/01/18 01:30:28;;;;;;;1.80;1.65;;;24.10;36.60;;;;;;10396895;28;20093;-63
2024/01/18 01:35:30;;;;;;;1.52;1.38;;;24.00;36.80;;;;;;10393694;28;20065;-63
2024/01/18 01:40:33;;;;;;;2.72;1.60;;;24.00;36.70;;;;;;10390644;28;20049;-63
2024/01/18 01:45:34;;;;;;;1.60;1.50;;;24.00;36.70;;;;;;10389488;28;20088;-62
2024/01/18 01:50:36;;;;;;;1.67;1.48;;;24.00;36.70;;;;;;10393722;28;20042;-62
2024/01/18 01:55:39;;;;;;;1.80;1.63;;;24.10;36.60;;;;;;10395129;28;20073;-63
2024/01/18 02:00:41;;;;;;;1.60;1.50;;;24.00;36.70;;;;;;10395848;28;20065;-62
2024/01/18 02:05:43;;;;;;;2.33;1.70;;;24.10;36.60;;;;;;10395228;28;20566;-62
2024/01/18 02:10:46;;;;;;;2.58;1.85;;;24.00;36.60;;;;;;10406386;28;20578;-60
2024/01/18 02:15:47;;;;;;;2.08;1.63;;;24.00;36.60;;;;;;10393598;28;20076;-62
2024/01/18 02:20:49;;;;;;;1.80;1.67;;;24.00;36.70;;;;;;10403186;28;20049;-62
2024/01/18 02:25:52;;;;;;;1.77;1.40;;;24.10;36.60;;;;;;10392244;28;20484;-62
2024/01/18 02:30:53;;;;;;;1.70;1.50;;;24.10;36.50;;;;;;10391630;28;20497;-61
2024/01/18 02:35:55;;;;;;;1.40;1.30;;;24.10;36.50;;;;;;10402871;28;20073;-60
2024/01/18 02:40:58;;;;;;;1.75;1.45;;;24.00;36.50;;;;;;10388419;28;20496;-62
2024/01/18 02:46:00;;;;;;;1.67;1.58;;;24.10;36.50;;;;;;10394047;28;20069;-62
2024/01/18 02:51:01;;;;;;;1.75;1.45;;;24.00;36.60;;;;;;10399922;28;20515;-62
2024/01/18 02:56:05;;;;;;;1.67;1.40;;;24.10;36.50;;;;;;10400004;28;20081;-62
2024/01/18 03:01:06;;;;;;;1.88;1.40;;;24.10;36.50;;;;;;10393296;28;20076;-60
2024/01/18 03:06:08;;;;;;;1.90;1.50;;;24.10;36.50;;;;;;10388126;28;20069;-63
2024/01/18 03:11:11;;;;;;;1.55;1.33;;;24.00;36.60;;;;;;10395146;28;20446;-63
2024/01/18 03:16:15;;;;;;;2.25;1.60;;;24.00;36.40;;;;;;10390604;28;20061;-62
2024/01/18 03:21:16;;;;;;;2.10;1.48;;;24.00;36.40;;;;;;10385947;28;20393;-62
2024/01/18 03:26:19;;;;;;;1.52;1.40;;;24.00;36.40;;;;;;10402574;28;20155;-62
2024/01/18 03:31:21;;;;;;;2.00;1.67;;;24.00;36.40;;;;;;10399658;28;21078;-62
2024/01/18 03:36:23;;;;;;;1.75;1.45;;;24.00;36.30;;;;;;10393994;28;20080;-63
2024/01/18 03:41:26;;;;;;;1.88;1.50;;;24.10;36.40;;;;;;10393784;28;20045;-63
2024/01/18 03:46:27;;;;;;;1.67;1.58;;;24.00;36.30;;;;;;10391060;28;20076;-62
2024/01/18 03:51:29;;;;;;;2.28;1.67;;;24.00;36.30;;;;;;10397878;28;20050;-61
2024/01/18 03:56:32;;;;;;;2.22;1.40;;;24.00;36.40;;;;;;10381646;28;20042;-60
2024/01/18 04:01:34;;;;;;;1.70;1.42;;;24.00;36.20;;;;;;10405240;28;20512;-62
2024/01/18 04:06:35;;;;;;;1.48;1.38;;;24.10;36.20;;;;;;10401154;28;20060;-63
2024/01/18 04:11:38;;;;;;;1.95;1.50;;;24.20;36.10;;;;;;10394427;28;20088;-62
2024/01/18 04:16:40;;;;;;;1.50;1.30;;;24.40;36.50;;;;;;10392750;28;20076;-63
2024/01/18 04:21:42;;;;;;;1.85;1.38;;;24.40;35.80;;;;;;10386675;28;20110;-63
2024/01/18 04:26:45;;;;;;;2.22;1.60;;;24.50;35.50;;;;;;10394313;28;20512;-62
2024/01/18 04:31:47;;;;;;;1.50;1.40;;;24.60;35.40;;;;;;10389066;28;20463;-62
2024/01/18 04:36:48;;;;;;;1.48;1.35;;;24.60;35.50;;;;;;10399404;28;20064;-61
2024/01/18 04:41:51;;;;;;;1.48;1.38;;;24.50;35.50;;;;;;10395751;28;20507;-63
2024/01/18 04:46:53;;;;;;;2.13;1.60;;;24.60;35.40;;;;;;10396515;28;20099;-62
2024/01/18 04:51:55;;;;;;;1.65;1.52;;;24.60;35.30;;;;;;10396033;28;20503;-61
2024/01/18 04:56:58;;;;;;;3.25;1.40;;;24.60;35.40;;;;;;10392051;28;20084;-62
2024/01/18 05:01:59;;;;;;;1.80;1.45;;;24.50;35.50;;;;;;10390361;28;20053;-62
2024/01/18 05:07:01;;;;;;;1.60;1.38;;;24.50;35.50;;;;;;10381569;28;20480;-62
2024/01/18 05:12:05;;;;;;;1.60;1.42;;;24.50;35.40;;;;;;10395870;28;20103;-60
2024/01/18 05:17:10;;;;;;;1.40;1.30;;;24.50;35.40;;;;;;10397266;28;20723;-62
2024/01/18 05:22:12;;;;;;;1.77;1.35;;;24.50;35.40;;;;;;10395878;28;20057;-60
2024/01/18 05:27:15;;;;;;;1.40;1.30;;;24.60;35.40;;;;;;10396981;28;20083;-60
2024/01/18 05:32:16;;;;;;;1.42;1.33;;;24.50;35.40;;;;;;10404333;28;20073;-63
2024/01/18 05:37:22;;;;;;;1.52;1.42;;;24.50;35.30;;;;;;10397294;28;20053;-63
2024/01/18 05:42:27;;;;;;;1.52;1.23;;;24.50;35.30;;;;;;10398563;28;20049;-61
2024/01/18 05:47:28;;;;;;;1.77;1.40;;;24.50;35.30;;;;;;10404814;28;20467;-63
2024/01/18 05:52:30;;;;;;;1.83;1.50;;;24.60;35.20;;;;;;10399793;28;20073;-63
2024/01/18 05:57:33;;;;;;;1.40;1.30;;;24.60;35.20;;;;;;10404705;28;20046;-62
2024/01/18 06:02:35;;;;;;;1.95;1.50;;;24.50;35.40;;;;;;10399131;28;20061;-59
2024/01/18 06:07:37;;;;;;;1.50;1.40;;;24.50;35.30;;;;;;10396489;28;20505;-62
2024/01/18 06:12:40;;;;;;;1.65;1.55;;;24.60;34.80;;;;;;10395262;28;20041;-60
2024/01/18 06:17:41;;;;;;;2.08;1.38;;;24.50;34.90;;;;;;10396815;28;20057;-64
2024/01/18 06:22:43;;;;;;;1.45;1.35;;;24.30;35.00;;;;;;10400379;28;20531;-63
2024/01/18 06:27:46;;;;;;;2.45;1.70;;;24.10;35.20;;;;;;10394054;28;20073;-63
2024/01/18 06:32:47;;;;;;;1.70;1.60;;;24.10;35.30;;;;;;10402193;28;20042;-61
2024/01/18 06:37:49;;;;;;;1.40;1.30;;;24.00;35.30;;;;;;10401101;28;20590;-60
2024/01/18 06:42:52;;;;;;;1.73;1.30;;;24.00;35.40;;;;;;10396345;28;20174;-62
2024/01/18 06:47:54;;;;;;;1.40;1.30;;;24.00;35.30;;;;;;10395130;28;20094;-62
2024/01/18 06:52:57;;;;;;;2.00;1.73;;;24.00;35.30;;;;;;10392512;28;20080;-62
2024/01/18 06:58:02;;;;;;;3.53;1.50;;;23.80;35.60;;;;;;10388501;28;20470;-63
2024/01/18 07:03:04;;;;;;;1.52;1.40;;;23.60;36.10;;;;;;10394739;28;20057;-62
2024/01/18 07:08:07;;;;;;;2.88;1.42;;;23.40;36.70;;;;;;10401317;28;20045;-60
2024/01/18 07:13:10;;;;;;;1.60;1.50;;;23.30;36.50;;;;;;10396772;28;20050;-61
2024/01/18 07:18:12;;;;;;;1.70;1.42;;;23.30;37.00;;;;;;10391186;28;20103;-62
2024/01/18 07:23:14;;;;;;;1.50;1.40;;;23.10;37.00;;;;;;10393248;28;20109;-63
2024/01/18 07:28:19;;;;;;;1.60;1.50;;;23.20;37.00;;;;;;10394444;28;20088;-63
2024/01/18 07:33:21;;;;;;;1.70;1.50;;;23.10;37.00;;;;;;10392160;28;20107;-64
2024/01/18 07:38:24;;;;;;;1.92;1.45;;;23.10;37.70;;;;;;10402138;28;20048;-62
2024/01/18 07:43:27;;;;;;;1.92;1.73;;;23.10;38.30;;;;;;10395491;28;20048;-62
2024/01/18 07:48:30;;;;;;;3.90;3.15;;;23.00;39.10;;;;;;10387867;28;20045;-63
2024/01/18 07:53:32;;;;;;;4.30;3.30;;;23.00;39.90;;;;;;10399414;28;20113;-61
2024/01/18 07:58:35;;;;;;;7.90;3.60;;;22.90;38.00;;;;;;10395931;28;20104;-63
2024/01/18 08:03:37;;;;;;;5.50;2.40;;;23.20;36.80;;;;;;10390182;28;20571;-62
2024/01/18 08:08:40;;;;;;;6.68;3.30;;;23.20;38.30;;;;;;10388140;28;20046;-62
2024/01/18 08:13:43;;;;;;;9.57;3.17;;;23.50;35.70;;;;;;10390847;28;20124;-61
2024/01/18 08:18:46;;;;;;;4.50;2.30;;;23.40;35.90;;;;;;10401303;28;20477;-62
2024/01/18 08:23:48;;;;;;;3.95;2.10;;;23.50;36.10;;;;;;10419763;22;20703;-59
2024/01/18 08:28:51;;;;;;;2.95;1.80;;;23.50;36.50;;;;;;10422480;28;20076;-58
2024/01/18 08:33:52;;;;;;;2.95;2.15;;;23.50;36.50;;;;;;10388560;28;20088;-59
2024/01/18 08:38:55;;;;;;;3.00;2.03;;;23.60;36.40;;;;;;10377890;28;20480;-60
2024/01/18 08:43:58;;;;;;;2.67;1.75;;;23.60;36.40;;;;;;10387997;28;20052;-60
2024/01/18 08:49:00;;;;;;;2.67;2.10;;;23.70;36.20;;;;;;10364484;28;20060;-60
2024/01/18 08:54:01;;;;;;;2.55;1.55;;;23.60;36.20;;;;;;10363661;28;20084;-63
2024/01/18 08:59:04;;;;;;;2.50;1.75;;;23.60;36.30;;;;;;10361094;28;20049;-61
2024/01/18 09:04:06;;;;;;;4.95;1.42;;;23.50;36.40;;;;;;10368498;28;20050;-61
2024/01/18 09:09:11;;;;;;;11.38;2.17;;;23.40;37.80;;;;;;10363832;28;20074;-64
2024/01/18 09:14:14;;;;;;;27.52;4.45;;;23.60;38.70;;;;;;10357754;28;20692;-63
2024/01/18 09:19:15;;;;;;;20.83;5.40;;;23.60;39.30;;;;;;10353059;28;20135;-64
2024/01/18 09:24:19;;;;;;;29.92;4.70;;;23.50;39.60;;;;;;10367153;28;20103;-61
2024/01/18 09:29:22;;;;;;;9.93;3.88;;;23.50;39.90;;;;;;10355762;28;20132;-62
2024/01/18 09:34:23;;;;;;;12.48;4.13;;;23.60;39.50;;;;;;10365745;28;20054;-61
2024/01/18 09:39:25;;;;;;;8.32;3.50;;;23.70;39.00;;;;;;10364089;28;20421;-62
2024/01/18 09:44:30;;;;;;;10.88;3.33;;;23.80;38.40;;;;;;10384058;28;20049;-61
2024/01/18 09:49:32;;;;;;;7.65;3.03;;;23.70;38.60;;;;;;10397821;28;20469;-61
2024/01/18 09:54:33;;;;;;;10.07;2.60;;;23.80;38.80;;;;;;10401155;28;20056;-61
2024/01/18 09:59:37;;;;;;;6.05;2.50;;;23.90;38.70;;;;;;10397062;28;20140;-58
2024/01/18 10:04:38;;;;;;;4.85;2.45;;;24.00;37.80;;;;;;10406650;28;20053;-61
2024/01/18 10:09:40;;;;;;;6.28;2.55;;;24.00;37.50;;;;;;10427446;28;20081;-62
2024/01/18 10:14:45;;;;;;;6.85;2.88;;;24.00;36.80;;;;;;10406030;28;20037;-67
2024/01/18 10:19:46;;;;;;;9.73;2.30;;;24.00;36.50;;;;;;10391850;28;20046;-67
2024/01/18 10:24:48;;;;;;;9.52;2.55;;;24.10;35.90;;;;;;10389822;28;20137;-68
2024/01/18 10:29:51;;;;;;;5.38;2.20;;;24.10;35.30;;;;;;10387352;28;20073;-71
2024/01/18 10:34:53;;;;;;;3.72;2.20;;;24.20;34.90;;;;;;10394069;28;20058;-67
2024/01/18 10:39:55;;;;;;;8.48;2.10;;;24.30;34.70;;;;;;10390983;28;20054;-67
2024/01/18 10:44:58;;;;;;;5.88;2.05;;;24.20;34.80;;;;;;10393509;28;20084;-68
2024/01/18 10:50:00;;;;;;;3.63;2.28;;;24.20;34.70;;;;;;10404866;28;20087;-67
2024/01/18 10:55:02;;;;;;;3.22;1.95;;;24.20;34.20;;;;;;10396296;28;20076;-67
2024/01/18 11:00:07;;;;;;;5.00;1.85;;;24.30;33.90;;;;;;10393736;28;20053;-69
2024/01/18 11:05:10;;;;;;;3.20;1.60;;;24.30;34.10;;;;;;10387382;28;20116;-67
2024/01/18 11:10:12;;;;;;;2.88;1.58;;;24.20;33.80;;;;;;10397629;28;20045;-70
2024/01/18 11:15:15;;;;;;;8.93;2.00;;;24.20;34.40;;;;;;10395156;28;20041;-68
2024/01/18 11:20:17;;;;;;;7.57;1.77;;;24.30;35.10;;;;;;10392246;28;20100;-65
2024/01/18 11:25:20;;;;;;;6.35;1.58;;;24.40;33.90;;;;;;10397358;28;20073;-67
2024/01/18 11:30:40;;;;;;;4.53;1.58;;;24.30;35.60;;;;;;10389286;28;20052;-67
2024/01/18 11:35:42;;;;;;;5.65;3.65;;;24.40;34.80;;;;;;10388773;28;20127;-70
2024/01/18 11:40:43;;;;;;;16.50;11.20;;;24.30;36.10;;;;;;10392272;28;20080;-67
2024/01/18 11:45:48;;;;;;;26.67;16.23;;;24.20;38.10;;;;;;10390169;28;20135;-63
2024/01/18 11:50:51;;;;;;;45.22;33.72;;;24.30;40.60;;;;;;10424204;28;20045;-64
2024/01/18 11:55:53;;;;;;;42.58;33.75;;;24.30;40.40;;;;;;10433005;28;20514;-64
2024/01/18 12:00:57;;;;;;;39.78;28.65;;;24.20;40.90;;;;;;10411313;28;20076;-64
2024/01/18 12:05:59;;;;;;;53.13;20.85;;;24.30;40.00;;;;;;10390569;28;20100;-64
2024/01/18 12:11:01;;;;;;;33.05;13.90;;;24.30;39.90;;;;;;10384238;28;20522;-64
2024/01/18 12:16:04;;;;;;;20.35;10.27;;;24.20;39.10;;;;;;10421976;28;20076;-63
2024/01/18 12:21:06;;;;;;;21.23;9.30;;;24.10;39.60;;;;;;10425256;28;20064;-64
2024/01/18 12:26:08;;;;;;;9.25;5.68;;;24.10;40.10;;;;;;10399208;28;20100;-64
2024/01/18 12:31:11;;;;;;;11.93;4.57;;;24.30;36.80;;;;;;10403230;28;20056;-62
2024/01/18 12:36:12;;;;;;;6.43;3.22;;;24.30;36.20;;;;;;10407993;28;20420;-63
2024/01/18 12:41:14;;;;;;;7.25;3.03;;;23.80;34.30;;;;;;10406723;28;20073;-62
2024/01/18 12:46:17;;;;;;;7.75;2.50;;;23.90;34.20;;;;;;10405605;28;20077;-61
2024/01/18 12:51:19;;;;;;;3.97;1.83;;;22.70;30.40;;;;;;10404542;28;20064;-62
2024/01/18 12:56:21;;;;;;;10.93;2.50;;;22.00;30.50;;;;;;10405595;28;20080;-62
2024/01/18 13:01:30;;;;;;;13.00;3.15;;;22.70;33.00;;;;;;10403610;28;20046;-63
2024/01/18 13:06:32;;;;;;;10.02;3.15;;;23.20;34.60;;;;;;10415262;28;20045;-61
2024/01/18 13:11:34;;;;;;;12.75;2.95;;;23.50;35.50;;;;;;10402715;28;20073;-67
2024/01/18 13:16:41;;;;;;;9.95;2.85;;;23.50;36.10;;;;;;10393164;28;20049;-62
2024/01/18 13:21:43;;;;;;;8.20;3.33;;;23.70;36.50;;;;;;10386652;28;20378;-61
2024/01/18 13:26:47;;;;;;;5.45;2.28;;;23.60;36.80;;;;;;10408132;28;20049;-62
2024/01/18 13:31:49;;;;;;;6.70;2.40;;;23.70;35.10;;;;;;10403553;28;20061;-63
2024/01/18 13:36:51;;;;;;;6.95;2.40;;;23.80;35.20;;;;;;10410235;28;20133;-63
2024/01/18 13:41:53;;;;;;;6.97;2.42;;;23.70;35.80;;;;;;10412586;28;20471;-63
2024/01/18 13:46:56;;;;;;;7.28;2.47;;;23.70;36.10;;;;;;10417951;28;20045;-65
2024/01/18 13:51:58;;;;;;;5.03;2.30;;;23.70;36.40;;;;;;10417474;28;20072;-63
2024/01/18 13:57:00;;;;;;;5.13;2.22;;;23.70;36.50;;;;;;10417807;28;20061;-63
2024/01/18 14:02:03;;;;;;;5.35;2.40;;;23.70;36.80;;;;;;10417716;28;20045;-63
2024/01/18 14:07:05;;;;;;;6.78;2.40;;;23.70;37.00;;;;;;10417666;28;20050;-63
2024/01/18 14:12:07;;;;;;;4.30;2.10;;;23.80;37.10;;;;;;10416791;28;20512;-63
2024/01/18 14:17:10;;;;;;;3.42;2.00;;;23.80;37.30;;;;;;10416782;28;20045;-63
2024/01/18 14:22:12;;;;;;;3.70;1.80;;;23.90;37.20;;;;;;10416841;28;20555;-62
2024/01/18 14:27:14;;;;;;;3.85;1.90;;;23.80;37.20;;;;;;10416857;28;20455;-63
2024/01/18 14:32:17;;;;;;;3.90;1.73;;;23.80;37.30;;;;;;10416122;28;20493;-63
2024/01/18 14:37:18;;;;;;;5.68;2.10;;;24.00;37.30;;;;;;10416742;28;20045;-63
2024/01/18 14:42:20;;;;;;;5.25;2.00;;;24.00;37.30;;;;;;10415814;28;20053;-63
2024/01/18 14:47:26;;;;;;;4.22;1.80;;;24.00;37.40;;;;;;10415884;28;20037;-62
2024/01/18 14:52:28;;;;;;;3.75;1.80;;;24.00;37.30;;;;;;10422884;28;20073;-63
2024/01/18 14:57:29;;;;;;;3.05;1.80;;;24.00;37.30;;;;;;10415622;28;20286;-62
2024/01/18 15:02:32;;;;;;;11.90;2.00;;;24.00;37.40;;;;;;10405993;28;20574;-63
2024/01/18 15:07:34;;;;;;;5.03;1.67;;;23.80;33.00;;;;;;10414796;28;20072;-62
2024/01/18 15:12:36;;;;;;;3.10;1.33;;;22.40;29.00;;;;;;10420253;28;20050;-63
2024/01/18 15:17:39;;;;;;;4.80;1.30;;;22.80;30.60;;;;;;10406826;28;20050;-59
2024/01/18 15:22:41;;;;;;;4.50;1.40;;;23.30;32.00;;;;;;10394949;28;20059;-58
2024/01/18 15:27:42;;;;;;;5.15;1.45;;;23.60;33.10;;;;;;10397060;28;20042;-61
2024/01/18 15:32:47;;;;;;;7.55;1.60;;;23.60;34.80;;;;;;10404545;28;20084;-62
2024/01/18 15:37:49;;;;;;;4.63;1.80;;;23.80;34.60;;;;;;10411834;28;20437;-62
2024/01/18 15:42:51;;;;;;;4.03;1.75;;;23.60;35.40;;;;;;10399380;28;20050;-62
2024/01/18 15:47:55;;;;;;;8.93;2.10;;;23.60;36.20;;;;;;10406276;28;20103;-60
2024/01/18 15:52:56;;;;;;;7.95;2.00;;;23.70;36.90;;;;;;10406755;28;20045;-60
2024/01/18 15:57:58;;;;;;;25.38;8.27;;;23.70;37.70;;;;;;10414768;28;20073;-61
2024/01/18 16:03:01;;;;;;;35.45;14.45;;;23.70;37.90;;;;;;10406053;28;20055;-61
2024/01/18 16:08:04;;;;;;;36.00;18.40;;;23.70;37.90;;;;;;10417822;28;20095;-62
2024/01/18 16:13:06;;;;;;;39.33;19.20;;;23.70;37.40;;;;;;10409383;28;20107;-61
2024/01/18 16:18:09;;;;;;;36.20;19.67;;;23.70;37.20;;;;;;10398848;28;20099;-59
2024/01/18 16:23:11;;;;;;;35.25;22.63;;;23.80;37.30;;;;;;10360477;28;20152;-59
2024/01/18 16:28:13;;;;;;;79.43;62.00;;;23.80;36.40;;;;;;10368214;28;20058;-59
2024/01/18 16:33:16;;;;;;;85.53;67.60;;;23.80;36.00;;;;;;10342483;28;20505;-59
2024/01/18 16:38:17;;;;;;;83.70;66.50;;;23.70;35.80;;;;;;10341372;28;20073;-58
2024/01/18 16:43:19;;;;;;;71.20;54.22;;;23.70;35.50;;;;;;10334253;28;20055;-59
2024/01/18 16:48:22;;;;;;;63.47;47.63;;;23.60;36.20;;;;;;10387228;28;20045;-58
2024/01/18 16:53:24;;;;;;;50.85;39.00;;;23.80;35.50;;;;;;10371432;28;20042;-60
2024/01/18 16:58:27;;;;;;;40.63;33.15;;;23.80;34.70;;;;;;10349594;28;20109;-60
2024/01/18 17:03:30;;;;;;;37.13;27.13;;;23.80;35.30;;;;;;10347065;28;20497;-59
2024/01/18 17:08:32;;;;;;;23.08;18.67;;;23.80;35.20;;;;;;10349997;28;20044;-58
2024/01/18 17:13:33;;;;;;;19.27;14.73;;;23.70;35.10;;;;;;10351051;28;20084;-63
2024/01/18 17:18:36;;;;;;;20.00;11.63;;;23.60;35.10;;;;;;10347296;28;20074;-60
2024/01/18 17:23:38;;;;;;;20.17;9.77;;;23.50;35.30;;;;;;10335015;28;20502;-60
2024/01/18 17:28:42;;;;;;;18.30;9.30;;;23.50;36.60;;;;;;10353484;28;20088;-60
2024/01/18 17:33:45;;;;;;;14.10;7.90;;;23.70;35.90;;;;;;10375831;28;20050;-61
2024/01/18 17:38:47;;;;;;;13.27;7.45;;;23.70;36.90;;;;;;10368305;28;20038;-60
2024/01/18 17:43:48;;;;;;;17.25;6.72;;;23.70;37.20;;;;;;10363547;28;20050;-61
2024/01/18 17:48:51;;;;;;;12.07;6.20;;;23.80;37.50;;;;;;10367023;28;20070;-62
2024/01/18 17:53:53;;;;;;;7.03;5.05;;;23.90;37.10;;;;;;10376961;28;20050;-61
2024/01/18 17:58:55;;;;;;;7.80;4.72;;;23.80;38.10;;;;;;10392065;28;20041;-61
2024/01/18 18:03:58;;;;;;;12.45;4.90;;;24.00;38.50;;;;;;10376426;28;20050;-61
2024/01/18 18:09:00;;;;;;;8.23;4.32;;;24.10;38.90;;;;;;10370943;28;20756;-60
2024/01/18 18:14:02;;;;;;;8.13;4.00;;;24.30;38.70;;;;;;10368248;28;20053;-61
2024/01/18 18:19:05;;;;;;;8.13;4.18;;;24.30;39.30;;;;;;10361242;28;20050;-60
2024/01/18 18:24:06;;;;;;;6.22;3.67;;;24.30;39.00;;;;;;10371686;28;20073;-61
2024/01/18 18:29:09;;;;;;;5.65;3.20;;;24.40;39.40;;;;;;10366008;28;20077;-61
2024/01/18 18:34:12;;;;;;;7.78;3.30;;;24.50;39.20;;;;;;10384339;28;20481;-59
2024/01/18 18:39:14;;;;;;;5.68;2.70;;;24.60;39.50;;;;;;10372789;28;20073;-60
2024/01/18 18:44:16;;;;;;;7.03;2.90;;;24.50;39.90;;;;;;10357249;28;20045;-60
2024/01/18 18:49:19;;;;;;;4.90;2.40;;;24.50;40.10;;;;;;10373194;28;20072;-60
2024/01/18 18:54:20;;;;;;;10.85;3.25;;;24.70;38.90;;;;;;10371237;28;20073;-60
2024/01/18 18:59:22;;;;;;;9.85;3.33;;;24.80;38.00;;;;;;10368598;28;20142;-61
2024/01/18 19:04:25;;;;;;;13.00;3.30;;;24.70;38.20;;;;;;10372555;28;20046;-61
2024/01/18 19:09:27;;;;;;;8.82;2.50;;;24.90;38.60;;;;;;10370406;28;20042;-61
2024/01/18 19:14:29;;;;;;;6.72;2.60;;;24.90;38.40;;;;;;10370267;28;20484;-61
2024/01/18 19:19:32;;;;;;;4.95;2.17;;;24.90;37.80;;;;;;10385040;28;20459;-61
2024/01/18 19:24:33;;;;;;;3.70;1.80;;;24.70;35.40;;;;;;10375326;28;20050;-61
2024/01/18 19:29:35;;;;;;;5.95;2.15;;;24.50;36.90;;;;;;10362416;28;20494;-61
2024/01/18 19:34:38;;;;;;;3.47;2.08;;;24.20;37.00;;;;;;10364197;28;20084;-60
2024/01/18 19:39:40;;;;;;;4.93;2.05;;;24.10;37.30;;;;;;10378598;28;20092;-61
2024/01/18 19:44:41;;;;;;;2.85;1.75;;;24.10;37.30;;;;;;10408144;28;20046;-63
2024/01/18 19:49:44;;;;;;;3.83;1.80;;;23.80;37.40;;;;;;10441539;28;20064;-61
2024/01/18 19:54:48;;;;;;;5.18;1.80;;;23.90;37.60;;;;;;10386925;28;20046;-60
2024/01/18 19:59:49;;;;;;;6.35;1.90;;;24.10;37.60;;;;;;10402563;28;20054;-61
2024/01/18 20:04:52;;;;;;;4.88;1.73;;;24.20;38.10;;;;;;10393009;28;20082;-62
2024/01/18 20:09:54;;;;;;;4.00;1.80;;;23.70;38.80;;;;;;10388927;28;20072;-61
2024/01/18 20:14:56;;;;;;;6.55;1.70;;;23.40;39.30;;;;;;10388054;28;20483;-61
2024/01/18 20:19:59;;;;;;;8.43;2.30;;;23.20;39.80;;;;;;10397118;28;20041;-61
2024/01/18 20:25:01;;;;;;;5.03;1.80;;;23.40;40.10;;;;;;10407501;22;20042;-60
2024/01/18 20:30:02;;;;;;;3.53;1.60;;;23.30;40.60;;;;;;10408066;28;20416;-60
2024/01/18 20:35:06;;;;;;;8.45;1.98;;;23.20;41.00;;;;;;10395913;28;20065;-54
2024/01/18 20:40:08;;;;;;;6.80;1.80;;;23.30;39.40;;;;;;10400472;28;20150;-57
2024/01/18 20:45:10;;;;;;;3.60;1.60;;;23.00;38.40;;;;;;10402823;28;20053;-59
2024/01/18 20:50:13;;;;;;;2.92;1.70;;;22.90;39.30;;;;;;10403792;28;20188;-58
2024/01/18 20:55:15;;;;;;;5.78;1.60;;;23.00;39.80;;;;;;10405685;28;20520;-59
2024/01/18 21:00:20;;;;;;;2.00;1.42;;;22.80;40.20;;;;;;10388889;28;20069;-58
2024/01/18 21:05:23;;;;;;;2.83;1.40;;;23.20;40.40;;;;;;10383693;28;20081;-59
2024/01/18 21:10:25;;;;;;;4.05;1.50;;;22.90;40.70;;;;;;10389904;28;20065;-57
2024/01/18 21:15:27;;;;;;;8.13;1.60;;;22.80;40.80;;;;;;10391263;28;20454;-59
2024/01/18 21:20:31;;;;;;;2.70;1.33;;;22.90;41.60;;;;;;10388325;28;20073;-58
2024/01/18 21:25:32;;;;;;;2.50;1.30;;;22.90;40.80;;;;;;10391849;28;20497;-57
2024/01/18 21:30:34;;;;;;;2.88;1.40;;;22.70;41.00;;;;;;10382224;28;20034;-56
2024/01/18 21:35:37;;;;;;;2.65;1.40;;;22.50;41.10;;;;;;10398432;28;20068;-58
2024/01/18 21:40:39;;;;;;;4.45;1.42;;;22.60;41.10;;;;;;10399703;28;20073;-59
2024/01/18 21:45:41;;;;;;;3.03;1.15;;;22.70;40.90;;;;;;10390214;28;20054;-59
2024/01/18 21:50:44;;;;;;;5.07;1.30;;;22.70;41.00;;;;;;10401011;28;20500;-59
2024/01/18 21:55:46;;;;;;;4.38;1.45;;;22.60;41.30;;;;;;10392198;28;20045;-58
2024/01/18 22:00:47;;;;;;;3.20;1.25;;;22.60;41.00;;;;;;10396175;28;20042;-58
2024/01/18 22:05:50;;;;;;;3.85;1.20;;;22.50;40.90;;;;;;10408326;28;20049;-59
2024/01/18 22:10:52;;;;;;;5.75;1.40;;;22.40;40.90;;;;;;10394555;28;20489;-59
2024/01/18 22:15:56;;;;;;;3.13;1.45;;;22.40;40.80;;;;;;10405409;28;20069;-58
2024/01/18 22:20:59;;;;;;;3.05;1.02;;;22.40;40.60;;;;;;10404694;28;20404;-55
2024/01/18 22:26:00;;;;;;;2.47;1.00;;;22.30;40.50;;;;;;10397536;28;20076;-56
2024/01/18 22:31:02;;;;;;;1.92;1.17;;;22.30;40.50;;;;;;10402730;28;20100;-59
2024/01/18 22:36:06;;;;;;;1.35;0.93;;;22.30;40.40;;;;;;10395609;28;20620;-59
2024/01/18 22:41:07;;;;;;;3.13;0.98;;;22.50;41.20;;;;;;10392740;28;20081;-59
2024/01/18 22:46:10;;;;;;;2.45;0.90;;;22.60;41.20;;;;;;10397263;28;20045;-59
2024/01/18 22:51:13;;;;;;;1.95;1.02;;;22.60;41.40;;;;;;10407005;28;20508;-59
2024/01/18 22:56:15;;;;;;;1.67;0.98;;;22.50;41.80;;;;;;10411002;28;20103;-59
2024/01/18 23:01:16;;;;;;;1.90;0.90;;;22.60;42.00;;;;;;10402405;28;20042;-60
2024/01/18 23:06:19;;;;;;;1.63;0.82;;;22.50;42.10;;;;;;10409789;28;20045;-57
2024/01/18 23:11:21;;;;;;;2.00;1.00;;;22.50;42.10;;;;;;10390421;28;20077;-59
2024/01/18 23:16:25;;;;;;;2.60;0.90;;;22.50;42.40;;;;;;10395165;28;20049;-59
2024/01/18 23:21:28;;;;;;;1.55;1.00;;;22.20;42.80;;;;;;10401502;28;20398;-56
2024/01/18 23:26:30;;;;;;;1.45;1.00;;;22.30;42.50;;;;;;10399305;28;20099;-59
2024/01/18 23:31:31;;;;;;;3.50;0.80;;;22.10;42.50;;;;;;10399764;28;20049;-60
2024/01/18 23:36:34;;;;;;;2.55;0.80;;;22.10;42.60;;;;;;10385837;28;20103;-58
2024/01/18 23:41:36;;;;;;;1.25;0.80;;;22.10;42.40;;;;;;10401156;28;20386;-55
2024/01/18 23:46:40;;;;;;;1.55;0.70;;;21.90;42.40;;;;;;10395445;28;20120;-59
2024/01/18 23:51:43;;;;;;;1.10;0.90;;;22.00;42.00;;;;;;10405247;28;20497;-58
2024/01/18 23:56:45;;;;;;;0.98;0.80;;;21.90;42.00;;;;;;10396828;28;20053;-60
